Time,TemperatureF,DewpointF,PressureIn,WindDirection,WindDirectionDegrees,WindSpeedMPH,WindSpeedGustMPH,Humidity,HourlyPrecipIn,Conditions,Clouds,dailyrainin,SoftwareType,DateUTC
2013-09-04 00:12:00,81.0,49.0,-100.00,ENE,60,4.0,4.0,32,-99.99,,,0.00,,2013-09-04 06:12:00,
2013-09-04 00:22:00,81.0,49.0,-100.00,ENE,60,4.0,4.0,32,-99.99,,,0.00,,2013-09-04 06:22:00,
2013-09-04 00:42:00,80.0,48.0,-100.00,NE,50,4.0,6.0,33,-99.99,,,0.00,,2013-09-04 06:42:00,
2013-09-04 00:52:00,80.0,48.0,-100.00,NE,50,4.0,6.0,33,-99.99,,,0.00,,2013-09-04 06:52:00,
2013-09-04 01:11:00,77.0,46.0,-100.00,East,90,9.0,11.0,34,-99.99,,,0.00,,2013-09-04 07:11:00,
2013-09-04 01:42:00,76.0,46.0,-100.00,ESE,120,2.0,6.0,35,-99.99,,,0.00,,2013-09-04 07:42:00,
2013-09-04 01:52:00,76.0,46.0,-100.00,ESE,120,2.0,6.0,35,-99.99,,,0.00,,2013-09-04 07:52:00,
2013-09-04 02:12:00,74.0,45.0,-100.00,WNW,290,3.0,3.0,36,-99.99,,,0.00,,2013-09-04 08:12:00,
2013-09-04 02:43:00,73.0,45.0,-100.00,SW,235,2.0,3.0,37,-99.99,,,0.00,,2013-09-04 08:43:00,
2013-09-04 02:52:00,73.0,45.0,-100.00,SW,235,2.0,3.0,37,-99.99,,,0.00,,2013-09-04 08:52:00,
2013-09-04 03:11:00,73.0,46.0,-100.00,West,265,8.0,9.0,38,-99.99,,,0.00,,2013-09-04 09:11:00,
2013-09-04 03:22:00,73.0,46.0,-100.00,West,265,8.0,9.0,38,-99.99,,,0.00,,2013-09-04 09:22:00,
2013-09-04 03:53:00,69.0,45.0,-100.00,WSW,250,7.0,9.0,42,-99.99,,,0.00,,2013-09-04 09:53:00,
2013-09-04 04:12:00,70.0,46.0,-100.00,West,260,9.0,11.0,43,-99.99,,,0.00,,2013-09-04 10:12:00,
2013-09-04 04:42:00,71.0,49.0,-100.00,West,265,6.0,11.0,45,-99.99,,,0.00,,2013-09-04 10:42:00,
2013-09-04 04:52:00,71.0,49.0,-100.00,West,265,6.0,11.0,45,-99.99,,,0.00,,2013-09-04 10:52:00,
2013-09-04 05:00:00,72.0,52.0,-100.00,WSW,240,14.0,16.0,48,-99.99,,,0.00,,2013-09-04 11:00:00,
2013-09-04 05:12:00,71.0,50.0,-100.00,SW,225,7.0,11.0,47,-99.99,,,0.00,,2013-09-04 11:12:00,
2013-09-04 05:42:00,72.0,52.0,-100.00,WSW,240,14.0,16.0,48,-99.99,,,0.00,,2013-09-04 11:42:00,
2013-09-04 05:51:00,72.0,52.0,-100.00,WSW,240,14.0,16.0,48,-99.99,,,0.00,,2013-09-04 11:51:00,
2013-09-04 06:21:00,72.0,52.0,-100.00,West,280,10.0,12.0,48,-99.99,,,0.00,,2013-09-04 12:21:00,
2013-09-04 06:42:00,72.0,52.0,-100.00,WNW,285,9.0,13.0,48,-99.99,,,0.00,,2013-09-04 12:42:00,
2013-09-04 06:52:00,72.0,52.0,-100.00,WNW,285,9.0,13.0,48,-99.99,,,0.00,,2013-09-04 12:52:00,
2013-09-04 07:01:00,71.0,52.0,-100.00,WNW,295,10.0,13.0,50,-99.99,,,0.00,,2013-09-04 13:01:00,
2013-09-04 07:11:00,71.0,51.0,-100.00,WNW,300,7.0,9.0,49,-99.99,,,0.00,,2013-09-04 13:11:00,
2013-09-04 07:21:00,71.0,51.0,-100.00,WNW,300,7.0,9.0,49,-99.99,,,0.00,,2013-09-04 13:21:00,
2013-09-04 07:42:00,71.0,52.0,-100.00,WNW,295,10.0,13.0,50,-99.99,,,0.00,,2013-09-04 13:42:00,
2013-09-04 07:52:00,71.0,52.0,-100.00,WNW,295,10.0,13.0,50,-99.99,,,0.00,,2013-09-04 13:52:00,
2013-09-04 08:00:00,73.0,53.0,-100.00,West,275,7.0,11.0,50,-99.99,,,0.00,,2013-09-04 14:00:00,
2013-09-04 08:21:00,72.0,53.0,-100.00,West,260,7.0,9.0,50,-99.99,,,0.00,,2013-09-04 14:21:00,
2013-09-04 08:42:00,73.0,53.0,-100.00,West,275,7.0,11.0,50,-99.99,,,0.00,,2013-09-04 14:42:00,
2013-09-04 08:52:00,73.0,53.0,-100.00,West,275,7.0,11.0,50,-99.99,,,0.00,,2013-09-04 14:52:00,
2013-09-04 09:22:00,73.0,54.0,-100.00,West,270,9.0,13.0,51,-99.99,,,0.00,,2013-09-04 15:22:00,
2013-09-04 09:43:00,76.0,56.0,-100.00,West,265,11.0,16.0,49,-99.99,,,0.00,,2013-09-04 15:43:00,
2013-09-04 09:53:00,76.0,56.0,-100.00,West,265,11.0,16.0,49,-99.99,,,0.00,,2013-09-04 15:53:00,
2013-09-04 10:12:00,79.0,57.0,-100.00,WNW,285,10.0,13.0,47,-99.99,,,0.00,,2013-09-04 16:12:00,
2013-09-04 10:23:00,79.0,57.0,-100.00,WNW,285,10.0,13.0,47,-99.99,,,0.00,,2013-09-04 16:23:00,
2013-09-04 10:43:00,81.0,57.0,-100.00,West,280,6.0,13.0,44,-99.99,,,0.00,,2013-09-04 16:43:00,
2013-09-04 10:53:00,81.0,57.0,-100.00,West,280,6.0,13.0,44,-99.99,,,0.00,,2013-09-04 16:53:00,
2013-09-04 11:00:00,84.0,58.0,-100.00,WNW,290,11.0,15.0,42,-99.99,,,0.00,,2013-09-04 17:00:00,
2013-09-04 11:13:00,82.0,58.0,-100.00,West,260,11.0,13.0,44,-99.99,,,0.00,,2013-09-04 17:13:00,
2013-09-04 11:42:00,84.0,58.0,-100.00,WNW,290,11.0,15.0,42,-99.99,,,0.00,,2013-09-04 17:42:00,
2013-09-04 11:52:00,84.0,58.0,-100.00,WNW,290,11.0,15.0,42,-99.99,,,0.00,,2013-09-04 17:52:00,
2013-09-04 13:52:00,90.0,59.0,-100.00,WNW,300,3.0,11.0,36,-99.99,,,0.00,,2013-09-04 19:52:00,
2013-09-04 14:00:00,88.0,57.0,-100.00,WSW,240,9.0,15.0,36,-99.99,,,0.00,,2013-09-04 20:00:00,
2013-09-04 14:11:00,88.0,58.0,-100.00,SW,235,6.0,14.0,36,-99.99,,,0.00,,2013-09-04 20:11:00,
2013-09-04 14:43:00,88.0,57.0,-100.00,WSW,240,9.0,15.0,36,-99.99,,,0.00,,2013-09-04 20:43:00,
2013-09-04 14:53:00,88.0,57.0,-100.00,WSW,240,9.0,15.0,36,-99.99,,,0.00,,2013-09-04 20:53:00,
2013-09-04 15:00:00,89.0,57.0,-100.00,SSE,160,12.0,21.0,34,-99.99,,,0.00,,2013-09-04 21:00:00,
2013-09-04 15:22:00,90.0,58.0,-100.00,West,260,8.0,15.0,35,-99.99,,,0.00,,2013-09-04 21:22:00,
2013-09-04 15:54:00,89.0,57.0,-100.00,SSE,160,12.0,21.0,34,-99.99,,,0.00,,2013-09-04 21:54:00,
2013-09-04 16:23:00,90.0,56.0,-100.00,WSW,255,8.0,12.0,32,-99.99,,,0.00,,2013-09-04 22:23:00,
2013-09-04 16:43:00,90.0,55.0,-100.00,SW,235,7.0,11.0,31,-99.99,,,0.00,,2013-09-04 22:43:00,
2013-09-04 16:54:00,90.0,55.0,-100.00,SW,235,7.0,11.0,31,-99.99,,,0.00,,2013-09-04 22:54:00,
2013-09-04 17:13:00,92.0,56.0,-100.00,East,90,5.0,9.0,30,-99.99,,,0.00,,2013-09-04 23:13:00,
2013-09-04 17:42:00,92.0,56.0,-100.00,East,80,3.0,7.0,30,-99.99,,,0.00,,2013-09-04 23:42:00,
2013-09-04 17:52:00,92.0,56.0,-100.00,East,80,3.0,7.0,30,-99.99,,,0.00,,2013-09-04 23:52:00,
2013-09-04 18:00:00,88.0,54.0,-100.00,NE,35,4.0,6.0,32,-99.99,,,0.00,,2013-09-05 00:00:00,
2013-09-04 18:11:00,90.0,55.0,-100.00,NNW,335,4.0,6.0,31,-99.99,,,0.00,,2013-09-05 00:11:00,
2013-09-04 18:22:00,90.0,55.0,-100.00,NNW,335,4.0,6.0,31,-99.99,,,0.00,,2013-09-05 00:22:00,
2013-09-04 18:42:00,88.0,54.0,-100.00,NE,35,4.0,6.0,32,-99.99,,,0.00,,2013-09-05 00:42:00,
2013-09-04 18:52:00,88.0,54.0,-100.00,NE,35,4.0,6.0,32,-99.99,,,0.00,,2013-09-05 00:52:00,
2013-09-04 19:00:00,85.0,54.0,-100.00,East,95,7.0,8.0,35,-99.99,,,0.00,,2013-09-05 01:00:00,
2013-09-04 19:21:00,86.0,54.0,-100.00,NE,35,5.0,9.0,34,-99.99,,,0.00,,2013-09-05 01:21:00,
2013-09-04 19:42:00,85.0,54.0,-100.00,East,95,7.0,8.0,35,-99.99,,,0.00,,2013-09-05 01:42:00,
2013-09-04 19:52:00,85.0,54.0,-100.00,East,95,7.0,8.0,35,-99.99,,,0.00,,2013-09-05 01:52:00,
2013-09-04 20:22:00,85.0,54.0,-100.00,SE,135,8.0,11.0,35,-99.99,,,0.00,,2013-09-05 02:22:00,
2013-09-04 21:00:00,77.0,54.0,-100.00,SSE,150,11.0,15.0,45,-99.99,,,0.00,,2013-09-05 03:00:00,
2013-09-04 21:11:00,76.0,54.0,-100.00,South,175,8.0,15.0,47,-99.99,,,0.00,,2013-09-05 03:11:00,
2013-09-04 21:22:00,76.0,54.0,-100.00,South,175,8.0,15.0,47,-99.99,,,0.00,,2013-09-05 03:22:00,
2013-09-04 21:45:00,77.0,54.0,-100.00,SSE,150,11.0,15.0,45,-99.99,,,0.00,,2013-09-05 03:45:00,
2013-09-04 21:54:00,77.0,54.0,-100.00,SSE,150,11.0,15.0,45,-99.99,,,0.00,,2013-09-05 03:54:00,
2013-09-04 22:44:00,77.0,53.0,-100.00,SSW,210,3.0,6.0,44,-99.99,,,0.00,,2013-09-05 04:44:00,
2013-09-04 22:53:00,77.0,53.0,-100.00,SSW,210,3.0,6.0,44,-99.99,,,0.00,,2013-09-05 04:53:00,
2013-09-04 23:00:00,75.0,53.0,-100.00,SSE,155,6.0,8.0,46,-99.99,,,0.00,,2013-09-05 05:00:00,
2013-09-04 23:12:00,75.0,53.0,-100.00,South,185,4.0,8.0,45,-99.99,,,0.00,,2013-09-05 05:12:00,
2013-09-04 23:43:00,75.0,53.0,-100.00,SSE,155,6.0,8.0,46,-99.99,,,0.00,,2013-09-05 05:43:00,
2013-09-04 23:52:00,75.0,53.0,-100.00,SSE,155,6.0,8.0,46,-99.99,,,0.00,,2013-09-05 05:52:00,